South Coast: Past 24 Hour Conditions

 

Winterland

07:30 AM NST 28 November 2014
This table is a summary of hourly weather conditions for the past 24 hours.
Date / Time
(NST)
Wind(knots) Conditions Visibility(km) Pressure(kPa) Air tempC) Relative humidity(%) Dew pointC)
28 November 2014
7:30 N 11 N/A 15 100.6 0 77 -3
6:30 NNW 11 gust 18 N/A 15 100.5 0 79 -3
5:30 NNW 15 gust 21 N/A 15 100.3 1 77 -3
4:30 NNW 16 gust 22 N/A 15 100.2 1 78 -2
3:30 NW 19 gust 24 N/A 15 100.1 2 84 0
2:30 NW 15 N/A 15 99.9 3 87 1
1:30 W 19 gust 25 N/A 15 99.6 4 85 1
0:30 W 26 gust 34 N/A 15 99.5 3 83 1
27 November 2014
23:30 WSW 27 gust 37 N/A 15 99.4 3 85 1
22:30 WSW 25 gust 33 N/A 15 99.4 4 92 3
21:30 WSW 22 gust 33 N/A 15 99.2 6 94 5
20:30 SW 24 gust 37 N/A 10 99.2 7 93 6
19:30 WSW 25 gust 39 N/A 8 99.2 8 90 6
18:30 SW 25 gust 36 N/A 8 99.2 9 90 7
17:30 SW 20 gust 33 N/A 10 99.2 10 93 9
16:30 WSW 21 gust 31 N/A 11 99.2 11 95 11
15:30 SW 27 gust 37 N/A 6 99.3 12 99 12
14:30 SW 22 gust 31 Light Rain 4 99.3 13 100 13
13:30 SW 15 gust 26 Light Rain 8 99.4 N/A N/A N/A
12:30 E 11 Heavy Rain 2 99.6 5 100 5
11:30 ESE 18 gust 24 Rain 2 99.7 4 100 4
10:30 E 14 gust 20 Light Rain 2 100.2 4 99 4
9:30 ESE 15 gust 22 Light Rain 5 100.4 3 99 3
8:30 ESE 18 gust 27 Light Drizzle 3 100.6 3 98 2
7:30 SE 19 gust 28 Light Drizzle 4 100.7 2 99 2
 
Map of Atlantic - Newfoundland marine weather areas Southwestern Grand Banks - 44138 Banquereau - 44139 Tail of the Bank - 44140 Nickerson Bank - 44251 Northeast Burgeo Bank - 44255 Blanc-Sablon Airport Cap Whittle Chevery Natashquan Airport Heath Point Miscou Island Grand Étang Ingonish Beach North Mountain St.Paul Island J.A. Douglas McCurdy Sydney Airport Charlottetown Airport East Point North Cape Argentia Bonavista Burgeo Cape Race Corner Brook Daniel's Harbour Englee Ferolle Point La Scie Port aux Basques Rocky Harbour Sagona Island St. Anthony Airport St. John's Int'l Airport St. Lawrence Stephenville Airport Twillingate Winterland Wreckhouse Cartwright Airport Mary's Harbour Grates Cove Pool's Island Marticot Island Long Pond Îles de la Madeleine Airport
Legend: buoyBuoy land stationLand Station